createdAt,value
2018-07-08T00:00:24.283Z,21.92
2018-07-08T00:01:24.319Z,21.91
2018-07-08T00:02:24.309Z,21.92
2018-07-08T00:03:24.334Z,21.89
2018-07-08T00:04:24.354Z,21.89
2018-07-08T00:05:24.309Z,21.89
2018-07-08T00:06:24.314Z,21.86
2018-07-08T00:07:24.398Z,21.88
2018-07-08T00:08:24.299Z,21.79
2018-07-08T00:09:24.429Z,21.82
2018-07-08T00:10:24.359Z,21.84
2018-07-08T00:11:24.331Z,21.84
2018-07-08T00:12:24.276Z,21.82
2018-07-08T00:13:24.336Z,21.85
2018-07-08T00:14:24.286Z,21.85
2018-07-08T00:15:24.297Z,21.81
2018-07-08T00:16:24.385Z,21.82
2018-07-08T00:17:24.270Z,21.81
2018-07-08T00:18:24.314Z,21.78
2018-07-08T00:19:24.272Z,21.77
2018-07-08T00:20:24.386Z,21.77
2018-07-08T00:21:24.510Z,21.78
2018-07-08T00:22:24.266Z,21.75
2018-07-08T00:23:24.249Z,21.78
2018-07-08T00:24:24.327Z,21.75
2018-07-08T00:25:24.364Z,21.75
2018-07-08T00:26:24.293Z,21.74
2018-07-08T00:27:24.353Z,21.71
2018-07-08T00:28:24.286Z,21.72
2018-07-08T00:29:24.457Z,21.71
2018-07-08T00:30:24.297Z,21.68
2018-07-08T00:31:24.282Z,21.65
2018-07-08T00:32:24.262Z,21.65
2018-07-08T00:33:24.293Z,21.67
2018-07-08T00:34:24.334Z,21.65
2018-07-08T00:35:24.282Z,21.65
2018-07-08T00:36:24.294Z,21.65
2018-07-08T00:37:24.286Z,21.67
2018-07-08T00:38:24.278Z,21.62
2018-07-08T00:39:24.298Z,21.58
2018-07-08T00:40:24.328Z,21.61
2018-07-08T00:41:24.320Z,21.58
2018-07-08T00:42:24.274Z,21.54
2018-07-08T00:43:24.262Z,21.54
2018-07-08T00:44:24.286Z,21.54
2018-07-08T00:45:24.272Z,21.49
2018-07-08T00:46:24.282Z,21.49
2018-07-08T00:47:24.296Z,21.46
2018-07-08T00:48:24.278Z,21.4
2018-07-08T00:49:24.284Z,21.41
2018-07-08T00:50:24.277Z,21.29
2018-07-08T00:51:24.367Z,21.27
2018-07-08T00:52:24.289Z,21.26
2018-07-08T00:53:24.276Z,21.13
2018-07-08T00:54:24.259Z,21.09
2018-07-08T00:55:24.264Z,21.13
2018-07-08T00:56:24.267Z,21.13
2018-07-08T00:57:24.371Z,21.12
2018-07-08T00:58:24.282Z,21.15
2018-07-08T00:59:24.282Z,21.15
2018-07-08T01:00:24.441Z,21.15
2018-07-08T01:01:25.049Z,21.13
2018-07-08T01:02:24.415Z,21.15
2018-07-08T01:03:24.263Z,21.17
2018-07-08T01:04:24.266Z,21.13
2018-07-08T01:05:24.327Z,21.15
2018-07-08T01:06:24.278Z,21.12
2018-07-08T01:07:24.480Z,21.13
2018-07-08T01:08:24.274Z,21.13
2018-07-08T01:09:24.288Z,21.12
2018-07-08T01:10:24.266Z,21.12
2018-07-08T01:11:24.328Z,21.13
2018-07-08T01:12:24.273Z,21.1
2018-07-08T01:13:24.366Z,21.1
2018-07-08T01:14:24.245Z,21.1
2018-07-08T01:15:24.291Z,21.09
2018-07-08T01:16:24.282Z,21.05
2018-07-08T01:17:24.319Z,21.06
2018-07-08T01:18:24.282Z,21.06
2018-07-08T01:19:24.253Z,21.06
2018-07-08T01:20:24.244Z,21.06
2018-07-08T01:21:24.284Z,21.02
2018-07-08T01:22:24.279Z,21.03
2018-07-08T01:23:24.246Z,20.99
2018-07-08T01:24:24.255Z,20.99
2018-07-08T01:25:24.464Z,20.95
2018-07-08T01:26:24.312Z,20.94
2018-07-08T01:27:24.367Z,20.92
2018-07-08T01:28:24.288Z,20.87
2018-07-08T01:29:24.301Z,20.85
2018-07-08T01:30:24.332Z,20.88
2018-07-08T01:31:24.313Z,20.85
2018-07-08T01:32:24.252Z,20.84
2018-07-08T01:33:24.615Z,20.84
2018-07-08T01:34:24.262Z,20.85
2018-07-08T01:35:24.445Z,20.84
2018-07-08T01:36:24.251Z,20.81
2018-07-08T01:37:24.252Z,20.85
2018-07-08T01:38:24.464Z,20.84
2018-07-08T01:39:24.268Z,20.81
2018-07-08T01:40:24.263Z,20.77
2018-07-08T01:41:24.306Z,20.51
2018-07-08T01:42:24.274Z,20.44
2018-07-08T01:43:24.248Z,20.51
2018-07-08T01:44:24.567Z,20.52
2018-07-08T01:45:24.254Z,20.52
2018-07-08T01:46:24.243Z,20.51
2018-07-08T01:47:24.272Z,20.52
2018-07-08T01:48:24.268Z,20.51
2018-07-08T01:49:24.262Z,20.47
2018-07-08T01:50:24.297Z,20.43
2018-07-08T01:51:24.246Z,20.41
2018-07-08T01:52:24.253Z,20.4
2018-07-08T01:53:24.452Z,20.4
2018-07-08T01:54:24.259Z,20.36
2018-07-08T01:55:24.256Z,20.37
2018-07-08T01:56:24.249Z,20.34
2018-07-08T01:57:24.238Z,20.32
2018-07-08T01:58:24.252Z,20.32
2018-07-08T01:59:24.275Z,20.27
2018-07-08T02:00:24.262Z,20.27
2018-07-08T02:01:24.296Z,20.27
2018-07-08T02:02:24.239Z,20.23
2018-07-08T02:03:24.282Z,20.19
2018-07-08T02:04:24.329Z,20.19
2018-07-08T02:05:24.270Z,20.22
2018-07-08T02:06:24.256Z,20.2
2018-07-08T02:07:24.277Z,20.17
2018-07-08T02:08:24.246Z,20.15
2018-07-08T02:09:24.281Z,20.16
2018-07-08T02:10:24.299Z,20.15
2018-07-08T02:11:24.461Z,20.13
2018-07-08T02:12:24.606Z,20.11
2018-07-08T02:13:24.245Z,20.11
2018-07-08T02:14:24.236Z,20.06
2018-07-08T02:15:24.296Z,20.06
2018-07-08T02:16:24.252Z,20.05
2018-07-08T02:17:24.527Z,20.05
2018-07-08T02:18:24.252Z,20.06
2018-07-08T02:19:24.260Z,20.11
2018-07-08T02:20:24.284Z,20.06
2018-07-08T02:21:24.332Z,20.08
2018-07-08T02:22:24.255Z,20.02
2018-07-08T02:23:24.242Z,19.93
2018-07-08T02:24:24.293Z,19.96
2018-07-08T02:25:24.482Z,19.95
2018-07-08T02:26:24.456Z,19.96
2018-07-08T02:27:24.253Z,19.96
2018-07-08T02:28:24.515Z,19.95
2018-07-08T02:29:24.283Z,19.93
2018-07-08T02:30:24.331Z,19.95
2018-07-08T02:31:24.288Z,19.88
2018-07-08T02:32:24.297Z,19.92
2018-07-08T02:33:24.231Z,19.89
2018-07-08T02:34:24.347Z,19.91
2018-07-08T02:35:24.263Z,19.81
2018-07-08T02:36:24.259Z,19.81
2018-07-08T02:37:24.250Z,19.75
2018-07-08T02:38:24.304Z,19.71
2018-07-08T02:39:24.235Z,19.72
2018-07-08T02:40:24.246Z,19.71
2018-07-08T02:41:24.292Z,19.72
2018-07-08T02:42:24.221Z,19.72
2018-07-08T02:43:24.300Z,19.71
2018-07-08T02:44:24.268Z,19.57
2018-07-08T02:45:24.307Z,19.61
2018-07-08T02:46:24.253Z,19.6
2018-07-08T02:47:24.232Z,19.51
2018-07-08T02:48:24.229Z,19.5
2018-07-08T02:49:24.245Z,19.43
2018-07-08T02:50:24.292Z,19.49
2018-07-08T02:51:24.270Z,19.49
2018-07-08T02:52:24.353Z,19.5
2018-07-08T02:53:26.528Z,19.49
2018-07-08T02:54:24.237Z,19.46
2018-07-08T02:55:24.298Z,19.34
2018-07-08T02:56:24.520Z,19.37
2018-07-08T02:57:24.218Z,19.39
2018-07-08T02:58:24.226Z,19.37
2018-07-08T02:59:24.233Z,19.39
2018-07-08T03:00:24.247Z,19.37
2018-07-08T03:01:24.244Z,19.37
2018-07-08T03:02:24.232Z,19.36
2018-07-08T03:03:24.215Z,19.34
2018-07-08T03:04:24.288Z,19.33
2018-07-08T03:05:24.266Z,19.36
2018-07-08T03:06:24.253Z,19.32
2018-07-08T03:07:24.246Z,19.27
2018-07-08T03:08:24.212Z,19.29
2018-07-08T03:09:24.246Z,19.29
2018-07-08T03:10:24.274Z,19.25
2018-07-08T03:11:24.236Z,19.25
2018-07-08T03:12:24.271Z,19.25
2018-07-08T03:13:24.271Z,19.19
2018-07-08T03:14:24.228Z,19.19
2018-07-08T03:15:24.228Z,19.15
2018-07-08T03:16:24.254Z,19.17
2018-07-08T03:17:24.286Z,19.19
2018-07-08T03:18:24.218Z,19.16
2018-07-08T03:19:24.237Z,19.16
2018-07-08T03:20:24.220Z,19.17
2018-07-08T03:21:24.243Z,19.17
2018-07-08T03:22:24.203Z,19.17
2018-07-08T03:23:24.285Z,19.15
2018-07-08T03:24:24.288Z,19.15
2018-07-08T03:25:24.219Z,19.15
2018-07-08T03:26:24.277Z,19.13
2018-07-08T03:27:24.219Z,19.13
2018-07-08T03:28:24.249Z,19.1
2018-07-08T03:29:24.551Z,19.12
2018-07-08T03:30:24.255Z,19.09
2018-07-08T03:31:24.286Z,19.09
2018-07-08T03:32:24.236Z,19.09
2018-07-08T03:33:24.435Z,19.1
2018-07-08T03:34:24.249Z,19.03
2018-07-08T03:35:24.224Z,19.05
2018-07-08T03:36:24.227Z,19.06
2018-07-08T03:37:24.235Z,19.06
2018-07-08T03:38:24.256Z,19.05
2018-07-08T03:39:24.250Z,19.06
2018-07-08T03:40:24.507Z,19.05
2018-07-08T03:41:24.239Z,19.05
2018-07-08T03:42:24.237Z,19.08
2018-07-08T03:43:24.246Z,19.03
2018-07-08T03:44:24.325Z,18.92
2018-07-08T03:45:24.361Z,18.78
2018-07-08T03:46:24.257Z,18.6
2018-07-08T03:47:24.305Z,18.63
2018-07-08T03:48:24.233Z,18.64
2018-07-08T03:49:24.257Z,18.59
2018-07-08T03:50:24.296Z,18.61
2018-07-08T03:51:24.288Z,18.56
2018-07-08T03:52:24.279Z,18.46
2018-07-08T03:53:24.241Z,18.49
2018-07-08T03:54:24.244Z,18.46
2018-07-08T03:55:24.236Z,18.46
2018-07-08T03:56:24.265Z,18.49
2018-07-08T03:57:24.302Z,18.49
2018-07-08T03:58:24.221Z,18.5
2018-07-08T03:59:24.277Z,18.47
2018-07-08T04:00:24.231Z,18.52
2018-07-08T04:01:24.273Z,18.53
2018-07-08T04:02:24.213Z,18.53
2018-07-08T04:03:24.343Z,18.56
2018-07-08T04:04:24.214Z,18.54
2018-07-08T04:05:24.194Z,18.56
2018-07-08T04:06:24.379Z,18.59
2018-07-08T04:07:24.278Z,18.57
2018-07-08T04:08:24.235Z,18.61
2018-07-08T04:09:24.251Z,18.61
2018-07-08T04:10:24.209Z,18.64
2018-07-08T04:11:24.276Z,18.66
2018-07-08T04:12:24.241Z,18.66
2018-07-08T04:13:24.252Z,18.67
2018-07-08T04:14:24.285Z,18.7
2018-07-08T04:15:24.221Z,18.74
2018-07-08T04:16:24.207Z,18.71
2018-07-08T04:17:24.237Z,18.72
2018-07-08T04:18:24.209Z,18.77
2018-07-08T04:19:24.223Z,18.74
2018-07-08T04:20:24.206Z,18.75
2018-07-08T04:21:24.239Z,18.78
2018-07-08T04:22:24.258Z,18.77
2018-07-08T04:23:24.205Z,18.78
2018-07-08T04:24:24.193Z,18.77
2018-07-08T04:25:24.298Z,18.77
2018-07-08T04:26:24.235Z,18.78
2018-07-08T04:27:24.219Z,18.74
2018-07-08T04:28:24.244Z,18.75
2018-07-08T04:29:24.240Z,18.68
2018-07-08T04:30:24.377Z,18.67
2018-07-08T04:31:24.192Z,18.68
2018-07-08T04:32:24.198Z,18.74
2018-07-08T04:33:24.207Z,18.72
2018-07-08T04:34:24.185Z,18.72
2018-07-08T04:35:24.195Z,18.72
2018-07-08T04:36:24.193Z,18.74
2018-07-08T04:37:24.185Z,18.71
2018-07-08T04:38:24.191Z,18.74
2018-07-08T04:39:24.227Z,18.74
2018-07-08T04:40:24.212Z,18.74
2018-07-08T04:41:24.357Z,18.74
2018-07-08T04:42:24.220Z,18.66
2018-07-08T04:43:24.227Z,18.66
2018-07-08T04:44:24.220Z,18.61
2018-07-08T04:45:24.189Z,18.6
2018-07-08T04:46:24.266Z,18.59
2018-07-08T04:47:24.201Z,18.6
2018-07-08T04:48:24.195Z,18.53
2018-07-08T04:49:24.256Z,18.54
2018-07-08T04:50:24.179Z,18.33
2018-07-08T04:51:24.191Z,18.36
2018-07-08T04:52:24.186Z,18.44
2018-07-08T04:53:24.350Z,18.44
2018-07-08T04:54:24.299Z,18.53
2018-07-08T04:55:24.186Z,18.57
2018-07-08T04:56:24.244Z,18.6
2018-07-08T04:57:24.205Z,18.57
2018-07-08T04:58:24.189Z,18.5
2018-07-08T04:59:24.272Z,18.47
2018-07-08T05:00:24.301Z,18.43
2018-07-08T05:01:24.254Z,18.42
2018-07-08T05:02:24.231Z,18.39
2018-07-08T05:03:24.223Z,18.46
2018-07-08T05:04:24.390Z,18.42
2018-07-08T05:05:24.208Z,18.5
2018-07-08T05:06:24.434Z,18.52
2018-07-08T05:07:24.195Z,18.46
2018-07-08T05:08:24.190Z,18.53
2018-07-08T05:09:24.185Z,18.2
2018-07-08T05:10:24.341Z,18.33
2018-07-08T05:11:24.189Z,18.37
2018-07-08T05:12:24.178Z,18.37
2018-07-08T05:13:24.193Z,18.29
2018-07-08T05:14:24.194Z,18.3
2018-07-08T05:15:24.211Z,18.32
2018-07-08T05:16:24.239Z,18.36
2018-07-08T05:17:24.216Z,18.44
2018-07-08T05:18:24.213Z,18.5
2018-07-08T05:19:24.271Z,18.57
2018-07-08T05:20:24.372Z,18.5
2018-07-08T05:21:24.258Z,18.52
2018-07-08T05:22:24.191Z,18.54
2018-07-08T05:23:24.229Z,18.42
2018-07-08T05:24:24.198Z,18.35
2018-07-08T05:25:24.478Z,18.37
2018-07-08T05:26:24.210Z,18.5
2018-07-08T05:27:24.206Z,18.52
2018-07-08T05:28:24.148Z,18.46
2018-07-08T05:29:24.207Z,18.57
2018-07-08T05:30:24.207Z,18.52
2018-07-08T05:31:24.233Z,18.39
2018-07-08T05:32:24.982Z,18.44
2018-07-08T05:33:24.289Z,18.5
2018-07-08T05:34:24.188Z,18.5
2018-07-08T05:35:24.420Z,18.54
2018-07-08T05:36:24.178Z,18.57
2018-07-08T05:37:24.195Z,18.52
2018-07-08T05:38:24.156Z,18.63
2018-07-08T05:39:24.209Z,18.52
2018-07-08T05:40:24.203Z,18.59
2018-07-08T05:41:24.214Z,18.66
2018-07-08T05:42:24.195Z,18.67
2018-07-08T05:43:24.157Z,18.67
2018-07-08T05:44:24.203Z,18.64
2018-07-08T05:45:24.233Z,18.68
2018-07-08T05:46:24.181Z,18.71
2018-07-08T05:47:24.190Z,18.77
2018-07-08T05:48:24.232Z,18.74
2018-07-08T05:49:24.168Z,18.78
2018-07-08T05:50:24.354Z,18.82
2018-07-08T05:51:24.352Z,18.91
2018-07-08T05:52:24.158Z,18.88
2018-07-08T05:53:24.184Z,18.92
2018-07-08T05:54:24.180Z,18.97
2018-07-08T05:55:24.211Z,19.02
2018-07-08T05:56:24.150Z,19.1
2018-07-08T05:57:24.159Z,19.09
2018-07-08T05:58:24.188Z,19.09
2018-07-08T05:59:24.194Z,19.13
2018-07-08T06:00:24.173Z,19.16
2018-07-08T06:01:24.320Z,19.1
2018-07-08T06:02:24.178Z,19.12
2018-07-08T06:03:24.165Z,19.03
2018-07-08T06:04:24.188Z,19.13
2018-07-08T06:05:24.209Z,19.15
2018-07-08T06:06:24.178Z,19.08
2018-07-08T06:07:24.162Z,19.05
2018-07-08T06:08:24.267Z,19.15
2018-07-08T06:09:24.298Z,19.12
2018-07-08T06:10:24.526Z,19.16
2018-07-08T06:11:24.179Z,19.25
2018-07-08T06:12:24.167Z,19.27
2018-07-08T06:13:24.175Z,19.26
2018-07-08T06:14:24.159Z,19.27
2018-07-08T06:15:24.295Z,19.29
2018-07-08T06:16:24.256Z,19.37
2018-07-08T06:17:24.153Z,19.37
2018-07-08T06:18:24.162Z,19.36
2018-07-08T06:19:24.183Z,19.44
2018-07-08T06:20:24.229Z,19.47
2018-07-08T06:21:24.148Z,19.46
2018-07-08T06:22:24.342Z,19.53
2018-07-08T06:23:24.334Z,19.56
2018-07-08T06:24:24.161Z,19.58
2018-07-08T06:25:24.136Z,19.61
2018-07-08T06:26:24.246Z,19.67
2018-07-08T06:27:24.157Z,19.67
2018-07-08T06:28:24.180Z,19.65
2018-07-08T06:29:24.252Z,19.74
2018-07-08T06:30:24.155Z,19.77
2018-07-08T06:31:24.175Z,19.84
2018-07-08T06:32:24.160Z,19.86
2018-07-08T06:33:24.175Z,19.91
2018-07-08T06:34:24.173Z,19.86
2018-07-08T06:35:24.345Z,19.84
2018-07-08T06:36:24.545Z,19.91
2018-07-08T06:37:24.195Z,19.92
2018-07-08T06:38:24.155Z,20.02
2018-07-08T06:39:24.182Z,20.04
2018-07-08T06:40:24.189Z,20.09
2018-07-08T06:41:24.149Z,20.16
2018-07-08T06:42:24.167Z,20.16
2018-07-08T06:43:24.234Z,20.16
2018-07-08T06:44:24.154Z,20.17
2018-07-08T06:45:24.163Z,20.23
2018-07-08T06:46:24.405Z,20.26
2018-07-08T06:47:24.176Z,20.29
2018-07-08T06:48:24.163Z,20.37
2018-07-08T06:49:24.134Z,20.41
2018-07-08T06:50:24.275Z,20.39
2018-07-08T06:51:24.162Z,20.4
2018-07-08T06:52:24.168Z,20.41
2018-07-08T06:53:24.199Z,20.5
2018-07-08T06:54:24.161Z,20.57
2018-07-08T06:55:24.137Z,20.62
2018-07-08T06:56:24.155Z,20.65
2018-07-08T06:57:24.175Z,20.64
2018-07-08T06:58:24.146Z,20.71
2018-07-08T06:59:24.126Z,20.74
2018-07-08T07:00:24.148Z,20.81
2018-07-08T07:01:24.148Z,20.81
2018-07-08T07:02:24.149Z,20.77
2018-07-08T07:03:24.135Z,20.77
2018-07-08T07:04:24.209Z,20.82
2018-07-08T07:05:24.166Z,20.72
2018-07-08T07:06:24.461Z,20.82
2018-07-08T07:07:24.149Z,20.91
2018-07-08T07:08:24.154Z,20.89
2018-07-08T07:09:24.133Z,20.95
2018-07-08T07:10:24.148Z,20.98
2018-07-08T07:11:24.209Z,20.99
2018-07-08T07:12:24.132Z,21.1
2018-07-08T07:13:24.147Z,21.13
2018-07-08T07:14:24.166Z,21.12
2018-07-08T07:15:24.142Z,21.19
2018-07-08T07:16:24.449Z,21.22
2018-07-08T07:17:24.277Z,21.22
2018-07-08T07:18:24.181Z,21.32
2018-07-08T07:19:24.142Z,21.29
2018-07-08T07:20:24.169Z,21.34
2018-07-08T07:21:24.162Z,21.36
2018-07-08T07:22:24.191Z,21.3
2018-07-08T07:23:24.225Z,21.3
2018-07-08T07:24:24.222Z,21.32
2018-07-08T07:25:24.139Z,21.33
2018-07-08T07:26:24.329Z,21.37
2018-07-08T07:27:24.133Z,21.46
2018-07-08T07:28:24.293Z,21.57
2018-07-08T07:29:24.165Z,21.58
2018-07-08T07:30:24.152Z,21.61
2018-07-08T07:31:24.179Z,21.56
2018-07-08T07:32:24.212Z,21.61
2018-07-08T07:33:24.157Z,21.75
2018-07-08T07:34:24.131Z,21.72
2018-07-08T07:35:24.158Z,21.69
2018-07-08T07:36:24.209Z,21.69
2018-07-08T07:37:24.395Z,21.77
2018-07-08T07:38:24.267Z,21.74
2018-07-08T07:39:24.329Z,21.74
2018-07-08T07:40:24.130Z,21.84
2018-07-08T07:41:24.284Z,21.94
2018-07-08T07:42:24.123Z,21.92
2018-07-08T07:43:24.413Z,21.98
2018-07-08T07:44:24.245Z,22.02
2018-07-08T07:45:24.329Z,21.99
2018-07-08T07:46:24.425Z,22.06
2018-07-08T07:47:24.355Z,22.15
2018-07-08T07:48:24.332Z,22.23
2018-07-08T07:49:24.440Z,22.27
2018-07-08T07:50:25.274Z,22.26
2018-07-08T07:51:24.116Z,22.3
2018-07-08T07:52:24.266Z,22.3
2018-07-08T07:53:24.164Z,22.37
2018-07-08T07:54:24.288Z,22.36
2018-07-08T07:55:24.270Z,22.47
2018-07-08T07:56:24.286Z,22.54
2018-07-08T07:57:24.297Z,22.51
2018-07-08T07:58:24.296Z,22.51
2018-07-08T07:59:24.304Z,22.48
2018-07-08T08:00:24.219Z,22.5
2018-07-08T08:01:24.226Z,22.56
2018-07-08T08:02:24.333Z,22.57
2018-07-08T08:03:24.359Z,22.65
2018-07-08T08:04:24.339Z,22.65
2018-07-08T08:05:24.148Z,22.65
2018-07-08T08:06:24.260Z,22.78
2018-07-08T08:07:24.165Z,22.78
2018-07-08T08:08:24.469Z,22.75
2018-07-08T08:09:24.275Z,22.78
2018-07-08T08:10:24.121Z,22.88
2018-07-08T08:11:24.190Z,22.79
2018-07-08T08:12:24.295Z,22.82
2018-07-08T08:13:24.299Z,22.88
2018-07-08T08:14:24.326Z,22.94
2018-07-08T08:15:24.316Z,22.84
2018-07-08T08:16:24.347Z,22.94
2018-07-08T08:17:24.236Z,22.98
2018-07-08T08:18:24.355Z,23.12
2018-07-08T08:19:24.245Z,23.01
2018-07-08T08:20:24.142Z,22.98
2018-07-08T08:21:24.129Z,22.88
2018-07-08T08:22:24.286Z,22.92
2018-07-08T08:23:24.283Z,23.11
2018-07-08T08:24:24.136Z,23.12
2018-07-08T08:25:24.189Z,23.16
2018-07-08T08:26:24.585Z,23.2
2018-07-08T08:27:24.226Z,23.32
2018-07-08T08:28:24.116Z,23.25
2018-07-08T08:29:24.159Z,23.32
2018-07-08T08:30:24.186Z,23.36
2018-07-08T08:31:24.249Z,23.37
2018-07-08T08:32:24.472Z,23.22
2018-07-08T08:33:24.158Z,23.27
2018-07-08T08:34:24.143Z,23.34
2018-07-08T08:35:24.250Z,23.54
2018-07-08T08:36:24.227Z,23.5
2018-07-08T08:37:24.371Z,23.48
2018-07-08T08:38:24.221Z,23.53
2018-07-08T08:39:24.396Z,23.44
2018-07-08T08:40:24.142Z,23.44
2018-07-08T08:41:24.120Z,23.5
2018-07-08T08:42:24.294Z,23.44
2018-07-08T08:43:24.116Z,23.48
2018-07-08T08:44:24.315Z,23.46
2018-07-08T08:45:24.137Z,23.48
2018-07-08T08:46:24.200Z,23.5
2018-07-08T08:47:24.151Z,23.54
2018-07-08T08:48:24.241Z,23.54
2018-07-08T08:49:24.113Z,23.62
2018-07-08T08:50:24.256Z,23.57
2018-07-08T08:51:24.147Z,23.65
2018-07-08T08:52:24.294Z,23.62
2018-07-08T08:53:24.138Z,23.61
2018-07-08T08:54:24.158Z,23.61
2018-07-08T08:55:24.545Z,23.68
2018-07-08T08:56:24.315Z,23.78
2018-07-08T08:57:24.537Z,23.87
2018-07-08T08:58:24.246Z,23.96
2018-07-08T08:59:24.283Z,23.88
2018-07-08T09:00:24.127Z,23.84
2018-07-08T09:01:24.144Z,23.89
2018-07-08T09:02:24.242Z,24.02
2018-07-08T09:03:24.221Z,23.99
2018-07-08T09:04:24.107Z,23.82
2018-07-08T09:05:24.159Z,23.84
2018-07-08T09:06:24.131Z,23.77
2018-07-08T09:07:24.108Z,23.77
2018-07-08T09:08:24.156Z,23.82
2018-07-08T09:09:24.163Z,24.05
2018-07-08T09:10:24.113Z,24.21
2018-07-08T09:11:24.124Z,24.13
2018-07-08T09:12:24.176Z,24.1
2018-07-08T09:13:24.097Z,24.17
2018-07-08T09:14:24.124Z,24.16
2018-07-08T09:15:24.138Z,24.2
2018-07-08T09:16:24.270Z,24.27
2018-07-08T09:17:24.371Z,24.21
2018-07-08T09:18:24.245Z,24.19
2018-07-08T09:19:24.115Z,24.15
2018-07-08T09:20:24.186Z,24.15
2018-07-08T09:21:24.159Z,24.05
2018-07-08T09:22:24.144Z,24.13
2018-07-08T09:23:24.195Z,24.3
2018-07-08T09:24:24.177Z,24.26
2018-07-08T09:25:24.105Z,24.15
2018-07-08T09:26:24.205Z,24.1
2018-07-08T09:27:24.118Z,24.12
2018-07-08T09:28:24.145Z,24.12
2018-07-08T09:29:24.485Z,24.19
2018-07-08T09:30:24.111Z,24.26
2018-07-08T09:31:24.093Z,24.33
2018-07-08T09:32:24.152Z,24.29
2018-07-08T09:33:24.133Z,24.32
2018-07-08T09:34:24.171Z,24.37
2018-07-08T09:35:24.129Z,24.3
2018-07-08T09:36:24.198Z,24.26
2018-07-08T09:37:24.094Z,24.2
2018-07-08T09:38:24.121Z,24.32
2018-07-08T09:39:24.401Z,24.26
2018-07-08T09:40:24.106Z,24.33
2018-07-08T09:41:24.339Z,24.33
2018-07-08T09:42:24.129Z,24.44
2018-07-08T09:43:24.125Z,24.46
2018-07-08T09:44:24.110Z,24.48
2018-07-08T09:45:24.103Z,24.33
2018-07-08T09:46:24.124Z,24.47
2018-07-08T09:47:24.127Z,24.4
2018-07-08T09:48:24.829Z,24.42
2018-07-08T09:49:24.112Z,24.4
2018-07-08T09:50:24.252Z,24.42
2018-07-08T09:51:24.087Z,24.42
2018-07-08T09:52:24.130Z,24.36
2018-07-08T09:53:24.704Z,24.32
2018-07-08T09:54:24.295Z,24.29
2018-07-08T09:55:24.571Z,24.4
2018-07-08T09:56:24.432Z,24.53
2018-07-08T09:57:24.105Z,24.47
2018-07-08T09:58:24.134Z,24.48
2018-07-08T09:59:24.118Z,24.58
2018-07-08T10:00:24.243Z,24.6
2018-07-08T10:01:24.116Z,24.48
2018-07-08T10:02:24.157Z,24.58
2018-07-08T10:03:24.097Z,24.67
2018-07-08T10:04:24.139Z,24.67
2018-07-08T10:05:24.089Z,24.72
2018-07-08T10:06:24.128Z,24.67
2018-07-08T10:07:24.101Z,24.64
2018-07-08T10:08:24.106Z,24.7
2018-07-08T10:09:24.100Z,24.61
2018-07-08T10:10:24.462Z,24.7
2018-07-08T10:11:24.375Z,24.79
2018-07-08T10:12:24.135Z,24.71
2018-07-08T10:13:24.091Z,24.74
2018-07-08T10:14:24.125Z,24.79
2018-07-08T10:15:24.080Z,24.74
2018-07-08T10:16:24.560Z,24.75
2018-07-08T10:17:24.315Z,24.7
2018-07-08T10:18:24.197Z,25.01
2018-07-08T10:19:24.441Z,25.03
2018-07-08T10:20:24.362Z,25.15
2018-07-08T10:21:24.242Z,25.15
2018-07-08T10:22:24.239Z,25.25
2018-07-08T10:23:24.235Z,25.16
2018-07-08T10:24:24.141Z,25.17
2018-07-08T10:25:24.663Z,25.13
2018-07-08T10:26:24.127Z,25.15
2018-07-08T10:27:24.156Z,25.17
2018-07-08T10:28:24.178Z,25.3
2018-07-08T10:29:24.150Z,25.48
2018-07-08T10:30:24.334Z,25.5
2018-07-08T10:31:24.190Z,25.51
2018-07-08T10:32:24.176Z,25.32
2018-07-08T10:33:24.088Z,25.2
2018-07-08T10:34:24.152Z,25.09
2018-07-08T10:35:24.166Z,25.26
2018-07-08T10:36:24.203Z,25.25
2018-07-08T10:37:24.187Z,25.26
2018-07-08T10:38:25.283Z,25.23
2018-07-08T10:39:24.100Z,25.23
2018-07-08T10:40:24.111Z,25.63
2018-07-08T10:41:24.084Z,25.61
2018-07-08T10:42:24.105Z,25.6
2018-07-08T10:43:25.499Z,25.57
2018-07-08T10:44:24.139Z,25.81
2018-07-08T10:45:24.094Z,25.85
2018-07-08T10:46:24.073Z,25.67
2018-07-08T10:47:24.063Z,25.65
2018-07-08T10:48:24.089Z,25.74
2018-07-08T10:49:24.088Z,25.74
2018-07-08T10:50:24.268Z,25.67
2018-07-08T10:51:24.493Z,25.5
2018-07-08T10:52:24.502Z,25.58
2018-07-08T10:53:24.106Z,25.6
2018-07-08T10:54:24.094Z,25.6
2018-07-08T10:55:24.494Z,25.75
2018-07-08T10:56:24.086Z,25.84
2018-07-08T10:57:24.065Z,25.88
2018-07-08T10:58:24.092Z,26.02
2018-07-08T10:59:24.224Z,25.89
2018-07-08T11:00:24.282Z,25.99
2018-07-08T11:01:24.077Z,26.06
2018-07-08T11:02:24.325Z,26.12
2018-07-08T11:03:24.082Z,25.92
2018-07-08T11:04:24.227Z,25.87
2018-07-08T11:05:24.090Z,26.17
2018-07-08T11:06:24.181Z,25.95
2018-07-08T11:07:24.076Z,25.92
2018-07-08T11:08:24.303Z,25.96
2018-07-08T11:09:24.164Z,26
2018-07-08T11:10:24.234Z,25.98
2018-07-08T11:11:24.149Z,26
2018-07-08T11:12:24.157Z,26.1
2018-07-08T11:13:24.118Z,26.26
2018-07-08T11:14:24.100Z,26.32
2018-07-08T11:15:24.557Z,26.34
2018-07-08T11:16:24.126Z,26.43
2018-07-08T11:17:24.096Z,26.22
2018-07-08T11:18:24.102Z,26.15
2018-07-08T11:19:24.072Z,26.13
2018-07-08T11:20:24.092Z,26.13
2018-07-08T11:21:24.103Z,26.12
2018-07-08T11:22:24.180Z,25.87
2018-07-08T11:23:24.319Z,25.95
2018-07-08T11:24:24.077Z,26.13
2018-07-08T11:25:24.233Z,26.34
2018-07-08T11:26:24.133Z,26.4
2018-07-08T11:27:24.245Z,26.37
2018-07-08T11:28:24.130Z,26.4
2018-07-08T11:29:24.127Z,26.4
2018-07-08T11:30:24.085Z,26.57
2018-07-08T11:31:24.125Z,26.62
2018-07-08T11:32:24.141Z,26.61
2018-07-08T11:33:24.094Z,26.68
2018-07-08T11:34:24.674Z,26.61
2018-07-08T11:35:25.161Z,26.64
2018-07-08T11:36:24.146Z,26.36
2018-07-08T11:37:24.110Z,26.57
2018-07-08T11:38:24.836Z,26.6
2018-07-08T11:39:24.058Z,26.62
2018-07-08T11:40:26.544Z,26.67
2018-07-08T11:41:24.066Z,26.71
2018-07-08T11:42:24.117Z,26.6
2018-07-08T11:43:25.081Z,26.55
2018-07-08T11:44:25.401Z,26.57
2018-07-08T11:45:24.072Z,26.62
2018-07-08T11:46:24.071Z,26.61
2018-07-08T11:47:24.459Z,26.61
2018-07-08T11:48:24.245Z,26.57
2018-07-08T11:49:24.177Z,26.77
2018-07-08T11:50:24.262Z,26.62
2018-07-08T11:51:24.076Z,26.37
2018-07-08T11:52:24.238Z,26.57
2018-07-08T11:53:24.130Z,26.62
2018-07-08T11:54:24.110Z,26.74
2018-07-08T11:55:24.440Z,26.74
2018-07-08T11:56:24.074Z,26.82
2018-07-08T11:57:24.069Z,26.84
2018-07-08T11:58:24.084Z,27.03
2018-07-08T11:59:24.080Z,27.07
2018-07-08T12:00:24.064Z,27.1
2018-07-08T12:01:24.076Z,26.82
2018-07-08T12:02:24.057Z,26.89
2018-07-08T12:03:24.081Z,26.95
2018-07-08T12:04:24.080Z,27.12
2018-07-08T12:05:24.085Z,27.17
2018-07-08T12:06:24.294Z,26.89
2018-07-08T12:07:24.106Z,26.96
2018-07-08T12:08:24.193Z,26.98
2018-07-08T12:09:24.074Z,27.06
2018-07-08T12:10:24.101Z,27.09
2018-07-08T12:11:24.104Z,26.98
2018-07-08T12:12:24.066Z,26.89
2018-07-08T12:13:24.225Z,26.96
2018-07-08T12:14:24.372Z,27.15
2018-07-08T12:15:24.137Z,27.07
2018-07-08T12:16:24.069Z,27.23
2018-07-08T12:17:24.230Z,27.23
2018-07-08T12:18:24.178Z,27.16
2018-07-08T12:19:24.255Z,27.1
2018-07-08T12:20:24.091Z,27.12
2018-07-08T12:21:24.324Z,27.02
2018-07-08T12:22:24.546Z,27.19
2018-07-08T12:23:24.188Z,27.19
2018-07-08T12:24:24.070Z,27.2
2018-07-08T12:25:24.276Z,27.07
2018-07-08T12:26:24.076Z,27.29
2018-07-08T12:27:24.078Z,27.36
2018-07-08T12:28:24.112Z,27.49
2018-07-08T12:29:24.097Z,27.68
2018-07-08T12:30:24.101Z,27.65
2018-07-08T12:31:24.154Z,27.65
2018-07-08T12:32:24.244Z,27.75
2018-07-08T12:33:24.080Z,27.65
2018-07-08T12:34:24.083Z,27.54
2018-07-08T12:35:24.078Z,27.56
2018-07-08T12:36:24.117Z,27.62
2018-07-08T12:37:24.144Z,27.64
2018-07-08T12:38:24.079Z,27.72
2018-07-08T12:39:24.055Z,27.64
2018-07-08T12:40:24.426Z,27.53
2018-07-08T12:41:24.214Z,27.51
2018-07-08T12:42:24.168Z,27.44
2018-07-08T12:43:24.062Z,27.53
2018-07-08T12:44:24.528Z,27.53
2018-07-08T12:45:24.231Z,27.53
2018-07-08T12:46:24.050Z,27.3
2018-07-08T12:47:24.273Z,27.37
2018-07-08T12:48:24.046Z,27.39
2018-07-08T12:49:24.259Z,27.39
2018-07-08T12:50:24.185Z,27.6
2018-07-08T12:51:25.086Z,27.72
2018-07-08T12:52:24.265Z,27.71
2018-07-08T12:53:24.070Z,27.96
2018-07-08T12:54:24.060Z,27.87
2018-07-08T12:55:24.096Z,27.82